Time;durP1;ratioP1;P1;durP2;ratioP2;P2;SDS_P1;SDS_P2;PMS_P1;PMS_P2;Temp;Humidity;BMP_temperature;BMP_pressure;BME280_temperature;BME280_humidity;BME280_pressure;Samples;Min_cycle;Max_cycle;Signal;HPM_P1;HPM_P2
2022/09/13 00:00:35;;;;;;;10.52;7.47;;;15.20;99.90;;;;;;5075804;28;20178;-69
2022/09/13 00:03:01;;;;;;;9.27;7.97;;;15.20;99.90;;;;;;5076909;28;20216;-69
2022/09/13 00:05:27;;;;;;;10.10;6.93;;;15.20;99.90;;;;;;5076858;28;20221;-69
2022/09/13 00:07:53;;;;;;;8.90;7.28;;;15.10;99.90;;;;;;5096925;28;20207;-69
2022/09/13 00:10:19;;;;;;;11.05;7.38;;;15.10;99.90;;;;;;5097179;28;20201;-69
2022/09/13 00:12:47;;;;;;;11.02;6.63;;;15.20;99.90;;;;;;5095608;28;20197;-70
2022/09/13 00:15:12;;;;;;;11.38;6.63;;;15.20;99.90;;;;;;5097040;28;20267;-69
2022/09/13 00:17:38;;;;;;;7.95;6.25;;;15.20;99.90;;;;;;5095782;28;20231;-69
2022/09/13 00:20:05;;;;;;;9.27;5.75;;;15.30;99.90;;;;;;5095941;28;20636;-70
2022/09/13 00:22:30;;;;;;;8.60;5.80;;;15.30;99.90;;;;;;5095557;28;20188;-69
2022/09/13 00:24:56;;;;;;;10.93;6.60;;;15.30;99.90;;;;;;5096823;28;20649;-70
2022/09/13 00:27:22;;;;;;;8.20;6.22;;;15.20;99.90;;;;;;5091267;28;20197;-70
2022/09/13 00:29:47;;;;;;;8.25;6.40;;;15.20;99.90;;;;;;5076244;28;20200;-69
2022/09/13 00:32:13;;;;;;;8.15;6.22;;;15.20;99.90;;;;;;5076483;28;20260;-69
2022/09/13 00:34:39;;;;;;;9.02;6.32;;;15.10;99.90;;;;;;5076486;28;20176;-69
2022/09/13 00:37:05;;;;;;;8.38;6.53;;;15.20;99.90;;;;;;5088518;28;20216;-70
2022/09/13 00:39:32;;;;;;;7.95;6.55;;;15.20;99.90;;;;;;5095134;28;20232;-70
2022/09/13 00:41:57;;;;;;;7.70;6.32;;;15.20;99.90;;;;;;5095290;28;20684;-70
2022/09/13 00:44:54;;;;;;;7.53;6.47;;;15.20;99.90;;;;;;5094986;28;20208;-70
2022/09/13 00:47:35;;;;;;;7.35;5.70;;;15.30;99.90;;;;;;5095090;28;20208;-71
2022/09/13 00:50:19;;;;;;;9.45;6.65;;;15.30;99.90;;;;;;5096359;28;20530;-69
2022/09/13 00:53:01;;;;;;;7.22;5.93;;;15.30;99.90;;;;;;5095089;28;20544;-70
2022/09/13 00:55:34;;;;;;;11.32;6.28;;;15.40;99.90;;;;;;5095053;28;20169;-70
2022/09/13 00:58:06;;;;;;;7.47;6.13;;;15.40;99.90;;;;;;5085506;28;20248;-70
2022/09/13 01:00:32;;;;;;;8.20;6.30;;;15.40;99.90;;;;;;5076008;28;20224;-70
2022/09/13 01:03:03;;;;;;;8.38;5.78;;;15.50;99.90;;;;;;5075836;28;20274;-70
2022/09/13 01:05:46;;;;;;;10.85;6.13;;;15.50;99.90;;;;;;5076513;28;20193;-70
2022/09/13 01:08:21;;;;;;;7.75;6.28;;;15.50;99.90;;;;;;5055766;28;20690;-70
2022/09/13 01:10:49;;;;;;;9.77;7.10;;;15.50;99.90;;;;;;5055635;28;20166;-70
2022/09/13 01:13:25;;;;;;;8.00;6.18;;;15.50;99.90;;;;;;5055403;28;20635;-70
2022/09/13 01:15:51;;;;;;;10.85;6.68;;;15.50;99.90;;;;;;5056285;28;20535;-72
2022/09/13 01:18:17;;;;;;;7.30;6.55;;;15.50;99.90;;;;;;5054242;28;20203;-72
2022/09/13 01:21:21;;;;;;;8.45;6.47;;;15.50;99.90;;;;;;5054166;28;20189;-72
2022/09/13 01:24:24;;;;;;;10.52;6.05;;;15.50;99.90;;;;;;5055539;28;20720;-72
2022/09/13 01:27:07;;;;;;;9.18;6.10;;;15.50;99.90;;;;;;5056072;28;20216;-72
2022/09/13 01:30:01;;;;;;;8.23;6.65;;;15.50;99.90;;;;;;5075107;28;20216;-72
2022/09/13 01:32:55;;;;;;;9.75;7.13;;;15.50;99.90;;;;;;5075290;28;20178;-72
2022/09/13 01:35:39;;;;;;;8.45;6.20;;;15.50;99.90;;;;;;5074124;28;20180;-71
2022/09/13 01:38:19;;;;;;;8.40;6.22;;;15.50;99.90;;;;;;5055125;28;20272;-71
2022/09/13 01:41:06;;;;;;;9.75;6.70;;;15.50;99.90;;;;;;5053724;28;20197;-72
2022/09/13 01:43:55;;;;;;;9.05;6.30;;;15.50;99.90;;;;;;5054805;28;20170;-72
2022/09/13 01:46:27;;;;;;;7.75;6.00;;;15.50;99.90;;;;;;5053891;28;20219;-72
2022/09/13 01:49:29;;;;;;;9.05;6.18;;;15.50;99.90;;;;;;5055210;28;20220;-72
2022/09/13 01:52:27;;;;;;;9.15;6.38;;;15.40;99.90;;;;;;5055282;28;20623;-72
2022/09/13 01:54:57;;;;;;;8.02;6.25;;;15.40;99.90;;;;;;5054391;28;20681;-72
2022/09/13 01:57:47;;;;;;;6.72;5.93;;;15.40;99.90;;;;;;5059361;28;20193;-72
2022/09/13 02:00:16;;;;;;;9.23;6.30;;;15.40;99.90;;;;;;5074958;28;20158;-72
2022/09/13 02:02:49;;;;;;;8.45;6.43;;;15.30;99.90;;;;;;5074720;28;20699;-71
2022/09/13 02:05:18;;;;;;;7.57;6.45;;;15.40;99.90;;;;;;5074885;28;20683;-71
2022/09/13 02:07:55;;;;;;;7.85;6.22;;;15.40;99.90;;;;;;5093260;28;20651;-72
2022/09/13 02:10:28;;;;;;;8.57;6.75;;;15.40;99.90;;;;;;5095029;28;20206;-72
2022/09/13 02:12:56;;;;;;;7.65;6.18;;;15.40;99.90;;;;;;5094748;28;20656;-71
2022/09/13 02:15:31;;;;;;;9.13;6.50;;;15.30;99.90;;;;;;5094819;28;20173;-71
2022/09/13 02:18:24;;;;;;;10.88;7.18;;;15.40;99.90;;;;;;5095406;28;20522;-71
2022/09/13 02:20:51;;;;;;;7.50;5.97;;;15.40;99.90;;;;;;5094586;28;20223;-72
2022/09/13 02:23:43;;;;;;;7.30;5.95;;;15.40;99.90;;;;;;5094634;28;20656;-72
2022/09/13 02:26:13;;;;;;;8.35;6.85;;;15.40;99.90;;;;;;5094539;28;20189;-71
2022/09/13 02:28:46;;;;;;;7.88;6.18;;;15.40;99.90;;;;;;5076747;28;20255;-71
2022/09/13 02:31:15;;;;;;;6.75;6.03;;;15.40;99.90;;;;;;5073182;28;20299;-71
2022/09/13 02:34:11;;;;;;;8.90;6.13;;;15.40;99.90;;;;;;5074528;28;20205;-71
2022/09/13 02:36:42;;;;;;;7.70;6.00;;;15.40;99.90;;;;;;5081781;28;20247;-72
2022/09/13 02:39:13;;;;;;;8.07;6.13;;;15.40;99.90;;;;;;5094496;28;20653;-71
2022/09/13 02:41:52;;;;;;;6.93;5.43;;;15.40;99.90;;;;;;5094381;28;20280;-72
2022/09/13 02:44:21;;;;;;;5.60;5.00;;;15.50;99.90;;;;;;5094515;28;20173;-71
2022/09/13 02:47:11;;;;;;;9.38;5.32;;;15.50;99.90;;;;;;5093555;28;20657;-71
2022/09/13 02:50:18;;;;;;;5.68;4.82;;;15.50;99.90;;;;;;5093962;28;20215;-71
2022/09/13 02:52:57;;;;;;;5.60;5.00;;;15.60;99.90;;;;;;5084055;28;20192;-71
2022/09/13 02:55:36;;;;;;;7.25;4.90;;;15.70;99.90;;;;;;5094407;28;20227;-72
2022/09/13 02:58:25;;;;;;;6.05;4.82;;;15.70;99.90;;;;;;5083085;28;20197;-72
2022/09/13 03:00:51;;;;;;;6.00;4.50;;;15.80;99.90;;;;;;5073582;28;20211;-72
2022/09/13 03:03:17;;;;;;;5.10;4.57;;;15.80;99.90;;;;;;5073889;28;20186;-72
2022/09/13 03:05:43;;;;;;;5.10;4.60;;;15.90;99.90;;;;;;5075884;28;20177;-71
2022/09/13 03:08:12;;;;;;;5.82;4.65;;;15.90;99.90;;;;;;5093967;28;20190;-72
2022/09/13 03:11:03;;;;;;;6.35;4.70;;;15.90;99.90;;;;;;5091927;28;20177;-72
2022/09/13 03:13:35;;;;;;;4.93;4.43;;;16.00;99.90;;;;;;5094082;28;20207;-71
2022/09/13 03:16:27;;;;;;;4.80;4.30;;;16.00;99.90;;;;;;5094021;28;20218;-71
2022/09/13 03:19:14;;;;;;;6.10;4.97;;;16.00;99.90;;;;;;5094184;28;20234;-71
2022/09/13 03:21:40;;;;;;;4.82;4.30;;;16.00;99.90;;;;;;5094371;28;20242;-72
2022/09/13 03:24:25;;;;;;;4.82;4.05;;;16.00;99.90;;;;;;5092740;28;20584;-71
2022/09/13 03:27:08;;;;;;;4.90;4.50;;;16.10;99.90;;;;;;5093570;28;20166;-71
2022/09/13 03:29:41;;;;;;;5.22;4.60;;;16.10;99.90;;;;;;5074085;28;20201;-71
2022/09/13 03:32:06;;;;;;;5.95;5.03;;;16.10;99.90;;;;;;5074518;28;20177;-71
2022/09/13 03:34:37;;;;;;;5.72;4.88;;;16.10;99.90;;;;;;5074259;28;20181;-71
2022/09/13 03:37:27;;;;;;;5.53;5.03;;;16.10;99.90;;;;;;5086978;28;20179;-71
2022/09/13 03:40:18;;;;;;;5.28;4.75;;;16.10;99.90;;;;;;5094084;28;20193;-72
2022/09/13 03:42:51;;;;;;;6.78;5.22;;;16.10;99.90;;;;;;5092118;28;20188;-71
2022/09/13 03:45:20;;;;;;;8.45;4.70;;;16.10;99.90;;;;;;5093594;28;20182;-71
2022/09/13 03:47:47;;;;;;;4.45;4.05;;;16.10;99.90;;;;;;5092391;28;20204;-72
2022/09/13 03:50:18;;;;;;;5.10;4.28;;;16.10;99.90;;;;;;5094934;28;20201;-71
2022/09/13 03:52:46;;;;;;;6.15;4.32;;;16.20;99.90;;;;;;5092927;28;20165;-71
2022/09/13 03:55:12;;;;;;;5.68;4.40;;;16.20;99.90;;;;;;5093670;28;20165;-72
2022/09/13 03:57:38;;;;;;;4.47;4.07;;;16.20;99.90;;;;;;5085741;28;20194;-71
2022/09/13 04:00:05;;;;;;;6.70;4.47;;;16.30;99.90;;;;;;5073127;28;20681;-72
2022/09/13 04:02:31;;;;;;;6.45;4.60;;;16.30;99.90;;;;;;5073044;28;20561;-72
2022/09/13 04:04:57;;;;;;;5.10;4.60;;;16.40;99.90;;;;;;5073401;28;20181;-72
2022/09/13 04:07:24;;;;;;;5.47;4.60;;;16.40;99.90;;;;;;5089082;28;20193;-72
2022/09/13 04:09:50;;;;;;;4.88;4.20;;;16.40;99.90;;;;;;5092097;28;20576;-71
2022/09/13 04:12:18;;;;;;;6.03;4.63;;;16.40;99.90;;;;;;5093469;28;20170;-71
2022/09/13 04:14:44;;;;;;;5.18;4.63;;;16.40;99.90;;;;;;5093122;28;20695;-71
2022/09/13 04:17:11;;;;;;;6.55;4.55;;;16.40;99.90;;;;;;5093365;28;20200;-72
2022/09/13 04:19:36;;;;;;;4.68;4.25;;;16.30;99.90;;;;;;5093160;28;20193;-71
2022/09/13 04:22:02;;;;;;;5.03;4.43;;;16.30;99.90;;;;;;5096128;28;20175;-72
2022/09/13 04:24:30;;;;;;;4.90;4.30;;;16.30;99.90;;;;;;5095651;28;20234;-72
2022/09/13 04:26:56;;;;;;;5.43;4.50;;;16.30;99.90;;;;;;5095384;28;20234;-72
2022/09/13 04:29:23;;;;;;;5.82;4.88;;;16.30;99.90;;;;;;5074905;28;20202;-72
2022/09/13 04:31:51;;;;;;;6.25;4.78;;;16.30;99.90;;;;;;5076573;28;20222;-72
2022/09/13 04:34:17;;;;;;;6.22;5.50;;;16.30;99.90;;;;;;5076515;28;20173;-71
2022/09/13 04:36:44;;;;;;;6.13;4.90;;;16.20;99.90;;;;;;5086794;28;20196;-71
2022/09/13 04:39:12;;;;;;;5.28;4.63;;;16.20;99.90;;;;;;5096515;28;20275;-71
2022/09/13 04:41:39;;;;;;;5.72;4.78;;;16.20;99.90;;;;;;5096412;28;20684;-71
2022/09/13 04:44:05;;;;;;;6.63;4.80;;;16.20;99.90;;;;;;5094958;28;20189;-72
2022/09/13 04:46:31;;;;;;;5.75;5.10;;;16.20;99.90;;;;;;5096636;28;20169;-72
2022/09/13 04:48:56;;;;;;;6.07;5.00;;;16.20;99.90;;;;;;5096322;28;20223;-72
2022/09/13 04:51:22;;;;;;;6.80;4.30;;;16.10;99.90;;;;;;5096605;28;20223;-72
2022/09/13 04:53:55;;;;;;;6.47;4.97;;;16.10;99.90;;;;;;5096807;28;20194;-72
2022/09/13 04:56:23;;;;;;;8.65;5.45;;;16.10;99.90;;;;;;5095087;28;20709;-72
2022/09/13 04:58:53;;;;;;;8.73;4.68;;;16.10;99.90;;;;;;5078477;28;20201;-71
2022/09/13 05:01:20;;;;;;;5.15;4.45;;;16.20;99.90;;;;;;5075660;28;20166;-71
2022/09/13 05:03:46;;;;;;;5.25;4.32;;;16.20;99.90;;;;;;5075642;28;20201;-72
2022/09/13 05:06:16;;;;;;;6.80;4.90;;;16.20;99.90;;;;;;5080368;28;20200;-72
2022/09/13 05:08:43;;;;;;;7.35;4.63;;;16.30;99.90;;;;;;5095682;28;20193;-72
2022/09/13 05:11:09;;;;;;;6.10;5.22;;;16.30;99.90;;;;;;5096036;28;20169;-71
2022/09/13 05:13:35;;;;;;;6.10;4.80;;;16.20;99.90;;;;;;5095535;28;20177;-72
2022/09/13 05:16:04;;;;;;;4.78;4.38;;;16.30;99.90;;;;;;5095770;28;20598;-71
2022/09/13 05:18:33;;;;;;;5.30;4.30;;;16.20;99.90;;;;;;5095581;28;20185;-72
2022/09/13 05:21:00;;;;;;;4.68;4.28;;;16.30;99.90;;;;;;5095693;28;20641;-72
2022/09/13 05:23:27;;;;;;;7.38;5.05;;;16.20;99.90;;;;;;5095792;28;20177;-72
2022/09/13 05:25:58;;;;;;;5.60;4.65;;;16.20;99.90;;;;;;5095722;28;20649;-71
2022/09/13 05:28:26;;;;;;;8.90;5.13;;;16.20;99.90;;;;;;5080041;28;20228;-71
2022/09/13 05:31:03;;;;;;;6.32;5.18;;;16.20;99.90;;;;;;5075152;28;20162;-71
2022/09/13 05:33:32;;;;;;;7.20;4.50;;;16.20;99.90;;;;;;5073216;28;20181;-71
2022/09/13 05:35:58;;;;;;;5.68;4.88;;;16.20;99.90;;;;;;5077760;28;20191;-71
2022/09/13 05:38:23;;;;;;;6.05;4.70;;;16.20;99.90;;;;;;5094074;28;20192;-71
2022/09/13 05:40:57;;;;;;;7.40;4.78;;;16.30;99.90;;;;;;5095102;28;20188;-71
2022/09/13 05:43:23;;;;;;;5.47;4.82;;;16.20;99.90;;;;;;5095239;28;20728;-71
2022/09/13 05:45:49;;;;;;;7.40;4.68;;;16.30;99.90;;;;;;5093538;28;20181;-71
2022/09/13 05:48:15;;;;;;;7.40;4.78;;;16.30;99.90;;;;;;5094978;28;20676;-71
2022/09/13 05:50:41;;;;;;;5.38;4.30;;;16.40;99.90;;;;;;5093575;28;20699;-71
2022/09/13 05:53:06;;;;;;;7.55;5.03;;;16.40;99.90;;;;;;5093641;28;20173;-72
2022/09/13 05:55:33;;;;;;;5.55;4.45;;;16.50;99.90;;;;;;5093575;28;20177;-72
2022/09/13 05:58:00;;;;;;;6.70;4.68;;;16.50;99.90;;;;;;5084326;28;20232;-72
2022/09/13 06:00:26;;;;;;;7.05;4.68;;;16.70;99.90;;;;;;5074600;28;20534;-71
2022/09/13 06:02:52;;;;;;;6.90;4.75;;;16.70;99.90;;;;;;5072982;28;20243;-71
2022/09/13 06:05:18;;;;;;;6.05;4.47;;;16.80;99.90;;;;;;5074528;28;20228;-71
2022/09/13 06:07:44;;;;;;;6.55;4.65;;;16.80;99.90;;;;;;5093228;28;20707;-71
2022/09/13 06:10:10;;;;;;;5.82;4.70;;;16.80;99.90;;;;;;5095266;28;20236;-71
2022/09/13 06:12:36;;;;;;;5.32;4.45;;;16.90;99.90;;;;;;5093413;28;20177;-71
2022/09/13 06:15:02;;;;;;;6.85;4.00;;;16.90;99.90;;;;;;5093521;28;20169;-71
2022/09/13 06:17:28;;;;;;;5.50;4.30;;;16.90;99.90;;;;;;5093885;28;20326;-72
2022/09/13 06:19:55;;;;;;;5.28;4.40;;;16.90;99.90;;;;;;5094884;28;20177;-70
2022/09/13 06:22:21;;;;;;;6.55;4.80;;;16.90;99.90;;;;;;5094760;28;20176;-72
2022/09/13 06:24:47;;;;;;;4.70;4.15;;;16.90;99.90;;;;;;5094711;28;20181;-71
2022/09/13 06:27:13;;;;;;;6.75;4.57;;;16.90;99.90;;;;;;5090209;28;20243;-71
2022/09/13 06:29:38;;;;;;;5.15;4.20;;;16.90;99.90;;;;;;5072363;28;20263;-71
2022/09/13 06:32:04;;;;;;;9.05;4.70;;;16.90;99.90;;;;;;5074367;28;20182;-71
2022/09/13 06:34:30;;;;;;;7.18;4.72;;;17.00;99.90;;;;;;5072855;28;20603;-71
2022/09/13 06:36:56;;;;;;;5.78;4.43;;;17.00;99.90;;;;;;5084770;28;20181;-71
2022/09/13 06:39:22;;;;;;;7.65;4.80;;;17.00;99.90;;;;;;5094051;28;20282;-71
2022/09/13 06:41:47;;;;;;;6.22;4.38;;;17.00;99.90;;;;;;5094753;28;20166;-71
2022/09/13 06:44:13;;;;;;;5.55;4.28;;;17.10;99.90;;;;;;5093838;28;20518;-71
2022/09/13 06:46:39;;;;;;;7.32;4.47;;;17.10;99.90;;;;;;5094248;28;20176;-72
2022/09/13 06:49:08;;;;;;;5.53;4.68;;;17.10;99.90;;;;;;5094109;28;20698;-71
2022/09/13 06:51:35;;;;;;;4.85;4.15;;;17.10;99.90;;;;;;5092757;28;20260;-71
2022/09/13 06:54:02;;;;;;;7.28;4.50;;;17.20;99.90;;;;;;5094174;28;20169;-71
2022/09/13 06:56:31;;;;;;;4.72;3.88;;;17.20;99.90;;;;;;5092578;28;20251;-71
2022/09/13 06:59:07;;;;;;;8.88;4.93;;;17.20;99.90;;;;;;5075058;28;20225;-71
2022/09/13 07:01:43;;;;;;;6.10;4.28;;;17.20;99.90;;;;;;5074309;28;20185;-71
2022/09/13 07:04:18;;;;;;;7.03;4.30;;;17.20;99.90;;;;;;5072435;28;20182;-71
2022/09/13 07:06:47;;;;;;;4.78;4.05;;;17.20;99.90;;;;;;5084127;28;20219;-71
2022/09/13 07:09:16;;;;;;;5.78;4.25;;;17.20;99.90;;;;;;5093713;28;20209;-72
2022/09/13 07:11:43;;;;;;;5.05;4.03;;;17.30;99.90;;;;;;5092525;28;20260;-72
2022/09/13 07:14:15;;;;;;;6.05;4.40;;;17.30;99.90;;;;;;5091891;28;20173;-71
2022/09/13 07:16:41;;;;;;;6.03;4.28;;;17.30;99.90;;;;;;5092213;28;20590;-72
2022/09/13 07:19:13;;;;;;;6.35;4.30;;;17.40;99.90;;;;;;5092331;28;20193;-71
2022/09/13 07:21:39;;;;;;;4.53;3.92;;;17.40;99.90;;;;;;5093554;28;20161;-71
2022/09/13 07:24:05;;;;;;;6.03;4.45;;;17.40;99.90;;;;;;5093487;28;20702;-71
2022/09/13 07:26:30;;;;;;;7.43;4.43;;;17.60;99.90;;;;;;5093483;28;20618;-72
2022/09/13 07:28:59;;;;;;;6.85;4.22;;;17.60;99.90;;;;;;5074727;28;20262;-71
2022/09/13 07:31:28;;;;;;;6.90;4.40;;;17.60;99.90;;;;;;5073660;28;20518;-71
2022/09/13 07:33:59;;;;;;;7.38;4.07;;;17.70;99.90;;;;;;5071986;28;20185;-72
2022/09/13 07:36:26;;;;;;;6.13;4.13;;;17.70;99.90;;;;;;5081077;28;20541;-71
2022/09/13 07:38:52;;;;;;;7.95;4.35;;;17.80;99.90;;;;;;5093604;28;20193;-71
2022/09/13 07:41:20;;;;;;;7.80;4.32;;;17.80;99.90;;;;;;5093325;28;20226;-71
2022/09/13 07:43:46;;;;;;;9.48;3.90;;;17.90;99.90;;;;;;5092049;28;20177;-71
2022/09/13 07:46:18;;;;;;;6.80;3.90;;;18.00;99.90;;;;;;5093241;28;20172;-72
2022/09/13 07:48:45;;;;;;;8.35;3.90;;;18.10;99.90;;;;;;5091970;28;20208;-71
2022/09/13 07:51:38;;;;;;;7.22;4.43;;;18.20;99.90;;;;;;5093740;28;20169;-72
2022/09/13 07:54:08;;;;;;;5.88;4.00;;;18.40;99.90;;;;;;5093644;28;20523;-71
2022/09/13 07:56:36;;;;;;;5.82;3.75;;;18.40;99.90;;;;;;5095941;28;20226;-71
2022/09/13 07:59:05;;;;;;;5.70;4.15;;;18.50;99.90;;;;;;5077731;28;20202;-71
2022/09/13 08:01:42;;;;;;;4.45;3.58;;;18.60;99.90;;;;;;5076956;28;20170;-72
2022/09/13 08:04:11;;;;;;;6.55;4.00;;;18.80;99.90;;;;;;5077808;28;20514;-71
2022/09/13 08:06:38;;;;;;;8.02;3.72;;;19.00;99.90;;;;;;5086187;28;20207;-72
2022/09/13 08:09:06;;;;;;;4.35;3.70;;;19.10;99.90;;;;;;5097013;28;20296;-71
2022/09/13 08:11:40;;;;;;;6.22;3.72;;;19.30;99.90;;;;;;5096011;28;20245;-71
2022/09/13 08:14:08;;;;;;;6.00;3.92;;;19.40;99.90;;;;;;5096748;28;20157;-71
2022/09/13 08:16:34;;;;;;;5.72;3.50;;;19.50;99.90;;;;;;5096973;28;20257;-71
2022/09/13 08:19:02;;;;;;;5.97;3.97;;;19.50;99.90;;;;;;5096898;28;20189;-72
2022/09/13 08:21:34;;;;;;;16.20;3.92;;;19.40;99.90;;;;;;5095560;28;20180;-72
2022/09/13 08:24:01;;;;;;;5.35;3.85;;;19.40;99.90;;;;;;5095626;28;20661;-72
2022/09/13 08:26:28;;;;;;;5.50;3.30;;;19.50;99.90;;;;;;5096872;28;20180;-72
2022/09/13 08:28:57;;;;;;;6.50;3.83;;;19.50;99.90;;;;;;5078691;28;20205;-71
2022/09/13 08:31:23;;;;;;;8.43;3.90;;;19.50;99.90;;;;;;5076148;28;20165;-72
2022/09/13 08:33:49;;;;;;;5.40;4.15;;;19.50;99.90;;;;;;5075184;28;20213;-72
2022/09/13 08:36:16;;;;;;;7.70;4.32;;;19.50;99.90;;;;;;5082679;28;20177;-72
2022/09/13 08:38:53;;;;;;;7.70;3.90;;;19.60;99.90;;;;;;5097401;28;20193;-71
2022/09/13 08:41:24;;;;;;;6.72;3.90;;;19.70;99.90;;;;;;5096333;28;20188;-71
2022/09/13 08:44:11;;;;;;;7.90;3.63;;;19.90;99.90;;;;;;5095070;28;20696;-72
2022/09/13 08:46:45;;;;;;;5.00;3.83;;;20.00;99.90;;;;;;5096309;28;20165;-72
2022/09/13 08:49:39;;;;;;;7.78;3.85;;;20.10;99.90;;;;;;5095074;28;20204;-72
2022/09/13 08:52:30;;;;;;;7.75;3.60;;;20.30;99.90;;;;;;5096709;28;20168;-72
2022/09/13 08:54:58;;;;;;;8.85;4.38;;;20.40;99.90;;;;;;5096553;28;20158;-72
2022/09/13 08:57:44;;;;;;;6.80;3.58;;;20.50;99.90;;;;;;5091160;28;20239;-72
2022/09/13 09:00:48;;;;;;;5.03;3.97;;;20.40;99.90;;;;;;5076300;28;20661;-72
2022/09/13 09:03:18;;;;;;;7.07;3.95;;;20.40;99.90;;;;;;5076740;28;20212;-72
2022/09/13 09:05:49;;;;;;;6.70;4.18;;;20.50;99.90;;;;;;5077439;28;20657;-71
2022/09/13 09:08:27;;;;;;;7.45;3.97;;;20.50;99.90;;;;;;5093892;28;20617;-70
2022/09/13 09:10:56;;;;;;;6.00;3.72;;;20.60;99.90;;;;;;5096397;28;20165;-71
2022/09/13 09:13:35;;;;;;;7.30;3.92;;;20.70;99.90;;;;;;5096210;28;20222;-71
2022/09/13 09:16:23;;;;;;;7.60;3.70;;;20.80;99.90;;;;;;5094482;28;20172;-71
2022/09/13 09:18:49;;;;;;;6.38;3.90;;;20.80;99.90;;;;;;5096002;28;20247;-71
2022/09/13 09:21:17;;;;;;;4.63;3.65;;;21.00;99.90;;;;;;5095810;28;20656;-72
2022/09/13 09:23:54;;;;;;;6.07;3.88;;;21.10;99.90;;;;;;5095959;28;20204;-72
2022/09/13 09:26:27;;;;;;;7.35;3.55;;;21.30;99.90;;;;;;5095744;28;20176;-72
2022/09/13 09:28:57;;;;;;;7.57;3.72;;;21.40;99.90;;;;;;5077494;28;20214;-72
2022/09/13 09:31:42;;;;;;;6.43;3.95;;;21.40;99.90;;;;;;5075098;28;20173;-72
2022/09/13 09:34:16;;;;;;;6.32;3.58;;;21.50;99.90;;;;;;5074128;28;20162;-72
2022/09/13 09:37:00;;;;;;;5.70;3.25;;;21.60;99.90;;;;;;5084037;28;20181;-71
2022/09/13 09:39:32;;;;;;;4.10;3.28;;;21.70;99.90;;;;;;5095362;28;20623;-72
2022/09/13 09:41:58;;;;;;;6.38;3.88;;;21.80;99.90;;;;;;5095551;28;20621;-71
2022/09/13 09:44:30;;;;;;;6.97;3.70;;;21.90;99.90;;;;;;5094888;28;20205;-71
2022/09/13 09:46:58;;;;;;;7.00;4.20;;;21.90;99.90;;;;;;5094071;28;20172;-72
2022/09/13 09:52:57;;;;;;;6.22;3.65;;;22.00;99.90;;;;;;5096013;28;20205;-72
2022/09/13 09:55:34;;;;;;;5.28;3.85;;;22.00;99.90;;;;;;5095647;28;20180;-72
2022/09/13 09:58:07;;;;;;;5.40;3.35;;;22.00;99.90;;;;;;5084359;28;20223;-72
2022/09/13 10:00:36;;;;;;;5.25;3.75;;;22.10;99.90;;;;;;5074495;28;20629;-72
2022/09/13 10:03:25;;;;;;;5.85;3.97;;;22.10;99.90;;;;;;5074571;28;20213;-72
2022/09/13 10:06:07;;;;;;;6.72;3.60;;;22.10;99.90;;;;;;5073075;28;20322;-72
2022/09/13 10:08:35;;;;;;;9.60;3.85;;;22.20;99.90;;;;;;5093462;28;20676;-72
2022/09/13 10:11:02;;;;;;;7.68;3.53;;;22.20;99.90;;;;;;5094683;28;20165;-72
2022/09/13 10:13:29;;;;;;;5.72;3.38;;;22.30;99.90;;;;;;5094529;28;20551;-72
2022/09/13 10:15:59;;;;;;;4.15;3.65;;;22.30;99.90;;;;;;5094270;28;20181;-72
2022/09/13 10:18:28;;;;;;;5.05;3.85;;;22.40;99.90;;;;;;5092837;28;20189;-72
2022/09/13 10:21:18;;;;;;;5.82;3.63;;;22.50;99.90;;;;;;5094869;28;20536;-72
2022/09/13 10:23:45;;;;;;;6.00;3.88;;;22.50;99.90;;;;;;5094463;28;20652;-72
2022/09/13 10:26:16;;;;;;;6.22;4.22;;;22.50;99.90;;;;;;5094329;28;20275;-72
2022/09/13 10:28:45;;;;;;;5.25;4.10;;;22.60;99.90;;;;;;5076447;28;20724;-71
2022/09/13 10:31:14;;;;;;;4.88;2.60;;;22.70;99.90;;;;;;5073745;28;20748;-72
2022/09/13 10:33:48;;;;;;;4.13;3.20;;;22.90;99.90;;;;;;5073905;28;20615;-71
2022/09/13 10:36:19;;;;;;;6.50;3.78;;;23.10;99.90;;;;;;5078881;28;20180;-72
2022/09/13 10:38:58;;;;;;;6.32;3.45;;;23.30;99.90;;;;;;5094303;28;20280;-72
2022/09/13 10:41:27;;;;;;;5.55;3.38;;;23.40;99.90;;;;;;5094117;28;20216;-71
2022/09/13 10:44:02;;;;;;;7.97;3.75;;;23.50;99.90;;;;;;5093953;28;20264;-71
2022/09/13 10:46:33;;;;;;;7.78;3.40;;;23.60;99.90;;;;;;5093780;28;20179;-72
2022/09/13 10:48:59;;;;;;;3.53;2.80;;;23.70;99.90;;;;;;5093807;28;20288;-73
2022/09/13 10:51:37;;;;;;;6.18;3.30;;;23.80;99.90;;;;;;5094008;28;20226;-72
2022/09/13 10:54:22;;;;;;;5.43;3.30;;;23.90;99.90;;;;;;5092647;28;20200;-72
2022/09/13 10:56:49;;;;;;;6.80;3.20;;;24.00;99.90;;;;;;5093649;28;20169;-72
2022/09/13 10:59:29;;;;;;;3.47;2.80;;;23.90;99.90;;;;;;5073396;28;20210;-72
2022/09/13 11:02:23;;;;;;;5.50;3.42;;;24.00;99.90;;;;;;5072205;28;20217;-72
2022/09/13 11:05:05;;;;;;;5.70;3.13;;;24.10;99.90;;;;;;5072486;28;20189;-72
2022/09/13 11:07:46;;;;;;;5.93;3.40;;;24.00;99.90;;;;;;5089133;28;20195;-72
2022/09/13 11:10:42;;;;;;;7.03;3.50;;;23.90;99.90;;;;;;5093719;28;20196;-72
2022/09/13 11:13:29;;;;;;;4.97;3.53;;;23.80;99.90;;;;;;5093718;28;20169;-72
2022/09/13 11:16:14;;;;;;;6.18;3.30;;;24.00;99.90;;;;;;5093345;28;20199;-72
2022/09/13 11:18:39;;;;;;;5.85;3.65;;;24.10;99.90;;;;;;5093733;28;20648;-72
2022/09/13 11:21:10;;;;;;;6.47;4.00;;;24.30;99.90;;;;;;5092293;28;20204;-72
2022/09/13 11:23:56;;;;;;;6.80;3.30;;;24.30;99.90;;;;;;5092280;28;20161;-72
2022/09/13 11:26:43;;;;;;;7.78;3.75;;;24.50;99.90;;;;;;5088493;28;20185;-72
2022/09/13 11:29:23;;;;;;;6.85;3.88;;;24.40;99.90;;;;;;5071930;28;20300;-72
2022/09/13 11:32:21;;;;;;;4.72;3.50;;;24.30;99.90;;;;;;5075874;28;20173;-72
2022/09/13 11:35:03;;;;;;;6.53;3.63;;;24.40;99.90;;;;;;5078039;28;20154;-72
2022/09/13 11:37:35;;;;;;;8.48;3.97;;;24.40;99.90;;;;;;5093959;28;20260;-72
2022/09/13 11:40:48;;;;;;;8.13;3.45;;;24.60;99.90;;;;;;5097461;28;20188;-72
2022/09/13 11:43:32;;;;;;;6.18;3.17;;;24.70;99.90;;;;;;5095633;28;20184;-72
2022/09/13 11:46:22;;;;;;;8.27;4.35;;;24.40;99.90;;;;;;5097486;28;20163;-72
2022/09/13 11:49:02;;;;;;;10.82;4.47;;;24.50;99.90;;;;;;5097311;28;20684;-72
2022/09/13 11:51:39;;;;;;;5.40;3.38;;;24.70;99.90;;;;;;5096229;28;20173;-73
2022/09/13 11:54:26;;;;;;;6.72;3.42;;;25.10;99.90;;;;;;5096127;28;20264;-72
2022/09/13 11:57:01;;;;;;;5.22;3.22;;;25.40;99.90;;;;;;5096561;28;20165;-73
2022/09/13 11:59:40;;;;;;;4.03;3.58;;;25.60;99.90;;;;;;5076959;28;20185;-72
2022/09/13 12:02:58;;;;;;;7.18;4.00;;;25.80;99.90;;;;;;5076852;28;20255;-72
2022/09/13 12:05:30;;;;;;;5.63;3.58;;;25.70;99.90;;;;;;5006136;28;20192;-73
2022/09/13 12:08:02;;;;;;;5.80;3.60;;;25.70;99.90;;;;;;5057279;28;20191;-73
2022/09/13 12:10:30;;;;;;;6.50;3.90;;;25.90;99.90;;;;;;5056856;28;20654;-72
2022/09/13 12:12:59;;;;;;;4.78;3.30;;;25.90;99.90;;;;;;5056689;28;20170;-72
2022/09/13 12:15:38;;;;;;;5.53;3.83;;;26.30;99.90;;;;;;5056451;28;20193;-72
2022/09/13 12:18:22;;;;;;;6.38;3.45;;;26.30;99.90;;;;;;5056663;28;20198;-73
2022/09/13 12:20:53;;;;;;;4.93;3.47;;;26.20;99.90;;;;;;5056724;28;20174;-73
2022/09/13 12:23:26;;;;;;;3.80;3.00;;;26.00;99.90;;;;;;5056612;28;20189;-72
2022/09/13 12:26:04;;;;;;;5.88;3.72;;;25.90;99.90;;;;;;5056693;28;20293;-72
2022/09/13 12:28:35;;;;;;;4.70;3.00;;;25.80;99.90;;;;;;5070807;28;20670;-72
2022/09/13 12:31:08;;;;;;;8.25;3.47;;;25.80;99.90;;;;;;5075213;28;20307;-72
2022/09/13 12:33:39;;;;;;;5.63;3.03;;;25.90;99.90;;;;;;5076494;28;20182;-73
2022/09/13 12:36:17;;;;;;;10.65;4.05;;;25.90;99.90;;;;;;5081477;28;20177;-72
2022/09/13 12:39:14;;;;;;;6.38;3.63;;;26.00;99.90;;;;;;5097890;28;20196;-72
2022/09/13 12:42:17;;;;;;;5.75;3.55;;;25.70;99.90;;;;;;5096369;28;20213;-72
2022/09/13 12:45:20;;;;;;;6.03;3.50;;;25.40;99.90;;;;;;5095331;28;20219;-72
2022/09/13 12:48:01;;;;;;;5.10;3.60;;;25.60;99.90;;;;;;5096705;28;20586;-72
2022/09/13 12:50:38;;;;;;;5.28;3.33;;;25.60;99.90;;;;;;5096853;28;20185;-73
2022/09/13 12:53:04;;;;;;;3.92;3.10;;;25.40;99.90;;;;;;5096777;28;20176;-72
2022/09/13 12:55:45;;;;;;;7.53;3.25;;;25.40;99.90;;;;;;5096419;28;20170;-73
2022/09/13 12:58:45;;;;;;;7.20;3.47;;;25.40;99.90;;;;;;5082853;28;20224;-72
2022/09/13 13:01:23;;;;;;;7.25;3.63;;;25.40;99.90;;;;;;5075749;28;20513;-73
2022/09/13 13:03:57;;;;;;;4.68;2.95;;;25.30;99.90;;;;;;5076189;28;20177;-73
2022/09/13 13:06:32;;;;;;;7.88;4.25;;;25.50;99.90;;;;;;5083352;28;20544;-72
2022/09/13 13:09:02;;;;;;;6.60;3.45;;;25.80;99.90;;;;;;5095880;28;20623;-72
2022/09/13 13:11:40;;;;;;;4.10;3.10;;;26.20;99.90;;;;;;5094915;28;20659;-72
2022/09/13 13:14:37;;;;;;;6.35;3.90;;;26.70;99.90;;;;;;5096102;28;20528;-72
2022/09/13 13:17:36;;;;;;;8.23;4.05;;;26.80;99.90;;;;;;5095815;28;20610;-71
2022/09/13 13:20:40;;;;;;;7.25;4.30;;;27.00;99.90;;;;;;5096173;28;20176;-72
2022/09/13 13:23:30;;;;;;;8.77;5.18;;;26.70;99.90;;;;;;5095796;28;20255;-71